sensor_id;sensor_type;location;lat;lon;timestamp;P1;durP1;ratioP1;P2;durP2;ratioP2
14381;SDS011;7275;50.328;8.720;2023-05-07T00:00:38;1.53;;;1.20;;
14381;SDS011;7275;50.328;8.720;2023-05-07T00:03:06;1.40;;;1.30;;
14381;SDS011;7275;50.328;8.720;2023-05-07T00:05:34;1.50;;;1.30;;
14381;SDS011;7275;50.328;8.720;2023-05-07T00:08:02;1.40;;;1.20;;
14381;SDS011;7275;50.328;8.720;2023-05-07T00:10:29;1.40;;;1.30;;
14381;SDS011;7275;50.328;8.720;2023-05-07T00:12:58;1.30;;;1.20;;
14381;SDS011;7275;50.328;8.720;2023-05-07T00:15:26;3.27;;;1.30;;
14381;SDS011;7275;50.328;8.720;2023-05-07T00:17:55;1.20;;;1.10;;
14381;SDS011;7275;50.328;8.720;2023-05-07T00:20:23;1.37;;;1.27;;
14381;SDS011;7275;50.328;8.720;2023-05-07T00:22:51;1.20;;;1.10;;
14381;SDS011;7275;50.328;8.720;2023-05-07T00:25:18;1.77;;;1.20;;
14381;SDS011;7275;50.328;8.720;2023-05-07T00:27:46;1.37;;;1.27;;
14381;SDS011;7275;50.328;8.720;2023-05-07T00:30:15;2.97;;;1.30;;
14381;SDS011;7275;50.328;8.720;2023-05-07T00:32:43;1.40;;;1.30;;
14381;SDS011;7275;50.328;8.720;2023-05-07T00:35:11;1.33;;;1.00;;
14381;SDS011;7275;50.328;8.720;2023-05-07T00:37:39;2.53;;;1.57;;
14381;SDS011;7275;50.328;8.720;2023-05-07T00:40:07;1.30;;;1.20;;
14381;SDS011;7275;50.328;8.720;2023-05-07T00:42:35;1.40;;;1.17;;
14381;SDS011;7275;50.328;8.720;2023-05-07T00:45:04;1.40;;;1.30;;
14381;SDS011;7275;50.328;8.720;2023-05-07T00:47:35;3.50;;;1.30;;
14381;SDS011;7275;50.328;8.720;2023-05-07T00:50:03;1.63;;;1.33;;
14381;SDS011;7275;50.328;8.720;2023-05-07T00:52:31;4.70;;;1.30;;
14381;SDS011;7275;50.328;8.720;2023-05-07T00:54:59;1.40;;;1.20;;
14381;SDS011;7275;50.328;8.720;2023-05-07T00:57:32;1.33;;;1.17;;
14381;SDS011;7275;50.328;8.720;2023-05-07T01:00:03;1.20;;;1.10;;
14381;SDS011;7275;50.328;8.720;2023-05-07T01:02:32;1.50;;;1.40;;
14381;SDS011;7275;50.328;8.720;2023-05-07T01:05:00;1.60;;;1.20;;
14381;SDS011;7275;50.328;8.720;2023-05-07T01:07:29;1.50;;;1.30;;
14381;SDS011;7275;50.328;8.720;2023-05-07T01:09:58;2.07;;;1.37;;
14381;SDS011;7275;50.328;8.720;2023-05-07T01:12:27;2.23;;;1.60;;
14381;SDS011;7275;50.328;8.720;2023-05-07T01:14:56;1.43;;;1.33;;
14381;SDS011;7275;50.328;8.720;2023-05-07T01:17:24;1.67;;;1.37;;
14381;SDS011;7275;50.328;8.720;2023-05-07T01:19:52;1.43;;;1.30;;
14381;SDS011;7275;50.328;8.720;2023-05-07T01:22:26;1.30;;;1.20;;
14381;SDS011;7275;50.328;8.720;2023-05-07T01:24:58;1.27;;;1.20;;
14381;SDS011;7275;50.328;8.720;2023-05-07T01:27:27;1.27;;;1.17;;
14381;SDS011;7275;50.328;8.720;2023-05-07T01:29:55;1.40;;;1.30;;
14381;SDS011;7275;50.328;8.720;2023-05-07T01:32:24;1.70;;;1.30;;
14381;SDS011;7275;50.328;8.720;2023-05-07T01:34:56;1.20;;;1.10;;
14381;SDS011;7275;50.328;8.720;2023-05-07T01:37:26;1.40;;;1.30;;
14381;SDS011;7275;50.328;8.720;2023-05-07T01:39:55;1.50;;;1.30;;
14381;SDS011;7275;50.328;8.720;2023-05-07T01:42:23;1.40;;;1.20;;
14381;SDS011;7275;50.328;8.720;2023-05-07T01:44:52;1.63;;;1.33;;
14381;SDS011;7275;50.328;8.720;2023-05-07T01:47:19;1.50;;;1.40;;
14381;SDS011;7275;50.328;8.720;2023-05-07T01:49:48;1.60;;;1.40;;
14381;SDS011;7275;50.328;8.720;2023-05-07T01:52:15;1.63;;;1.50;;
14381;SDS011;7275;50.328;8.720;2023-05-07T01:54:44;1.20;;;1.10;;
14381;SDS011;7275;50.328;8.720;2023-05-07T01:57:12;1.30;;;1.20;;
14381;SDS011;7275;50.328;8.720;2023-05-07T01:59:39;1.20;;;1.10;;
14381;SDS011;7275;50.328;8.720;2023-05-07T02:02:07;1.80;;;1.30;;
14381;SDS011;7275;50.328;8.720;2023-05-07T02:04:35;1.87;;;1.40;;
14381;SDS011;7275;50.328;8.720;2023-05-07T02:07:02;1.27;;;1.17;;
14381;SDS011;7275;50.328;8.720;2023-05-07T02:09:30;1.37;;;1.27;;
14381;SDS011;7275;50.328;8.720;2023-05-07T02:11:59;1.30;;;1.20;;
14381;SDS011;7275;50.328;8.720;2023-05-07T02:14:26;1.30;;;1.20;;
14381;SDS011;7275;50.328;8.720;2023-05-07T02:16:54;1.37;;;1.27;;
14381;SDS011;7275;50.328;8.720;2023-05-07T02:19:21;1.13;;;1.03;;
14381;SDS011;7275;50.328;8.720;2023-05-07T02:21:49;1.67;;;1.47;;
14381;SDS011;7275;50.328;8.720;2023-05-07T02:24:17;1.40;;;1.20;;
14381;SDS011;7275;50.328;8.720;2023-05-07T02:26:44;1.57;;;1.40;;
14381;SDS011;7275;50.328;8.720;2023-05-07T02:29:13;1.47;;;1.30;;
14381;SDS011;7275;50.328;8.720;2023-05-07T02:31:40;1.20;;;1.10;;
14381;SDS011;7275;50.328;8.720;2023-05-07T02:34:08;1.40;;;1.30;;
14381;SDS011;7275;50.328;8.720;2023-05-07T02:36:35;1.60;;;1.40;;
14381;SDS011;7275;50.328;8.720;2023-05-07T02:39:03;1.77;;;1.57;;
14381;SDS011;7275;50.328;8.720;2023-05-07T02:41:30;1.77;;;1.67;;
14381;SDS011;7275;50.328;8.720;2023-05-07T02:43:58;1.70;;;1.60;;
14381;SDS011;7275;50.328;8.720;2023-05-07T02:46:27;1.57;;;1.47;;
14381;SDS011;7275;50.328;8.720;2023-05-07T02:48:54;1.60;;;1.50;;
14381;SDS011;7275;50.328;8.720;2023-05-07T02:51:22;2.03;;;1.73;;
14381;SDS011;7275;50.328;8.720;2023-05-07T02:53:51;1.77;;;1.43;;
14381;SDS011;7275;50.328;8.720;2023-05-07T02:56:18;1.93;;;1.50;;
14381;SDS011;7275;50.328;8.720;2023-05-07T02:58:47;1.87;;;1.57;;
14381;SDS011;7275;50.328;8.720;2023-05-07T03:01:14;1.60;;;1.50;;
14381;SDS011;7275;50.328;8.720;2023-05-07T03:03:44;2.87;;;1.70;;
14381;SDS011;7275;50.328;8.720;2023-05-07T03:06:11;1.63;;;1.53;;
14381;SDS011;7275;50.328;8.720;2023-05-07T03:08:39;1.80;;;1.60;;
14381;SDS011;7275;50.328;8.720;2023-05-07T03:11:06;1.60;;;1.50;;
14381;SDS011;7275;50.328;8.720;2023-05-07T03:13:34;1.60;;;1.50;;
14381;SDS011;7275;50.328;8.720;2023-05-07T03:16:01;1.53;;;1.43;;
14381;SDS011;7275;50.328;8.720;2023-05-07T03:18:29;1.80;;;1.60;;
14381;SDS011;7275;50.328;8.720;2023-05-07T03:20:58;2.20;;;1.83;;
14381;SDS011;7275;50.328;8.720;2023-05-07T03:23:25;2.53;;;1.60;;
14381;SDS011;7275;50.328;8.720;2023-05-07T03:25:53;2.43;;;1.63;;
14381;SDS011;7275;50.328;8.720;2023-05-07T03:28:20;2.00;;;1.80;;
14381;SDS011;7275;50.328;8.720;2023-05-07T03:30:48;1.67;;;1.57;;
14381;SDS011;7275;50.328;8.720;2023-05-07T03:33:15;1.97;;;1.60;;
14381;SDS011;7275;50.328;8.720;2023-05-07T03:35:43;2.00;;;1.80;;
14381;SDS011;7275;50.328;8.720;2023-05-07T03:38:12;1.73;;;1.63;;
14381;SDS011;7275;50.328;8.720;2023-05-07T03:40:39;1.70;;;1.60;;
14381;SDS011;7275;50.328;8.720;2023-05-07T03:43:07;1.80;;;1.70;;
14381;SDS011;7275;50.328;8.720;2023-05-07T03:45:35;1.83;;;1.73;;
14381;SDS011;7275;50.328;8.720;2023-05-07T03:48:02;2.00;;;1.80;;
14381;SDS011;7275;50.328;8.720;2023-05-07T03:50:30;2.00;;;1.70;;
14381;SDS011;7275;50.328;8.720;2023-05-07T03:52:58;2.63;;;1.90;;
14381;SDS011;7275;50.328;8.720;2023-05-07T03:55:27;1.73;;;1.63;;
14381;SDS011;7275;50.328;8.720;2023-05-07T03:57:54;1.90;;;1.80;;
14381;SDS011;7275;50.328;8.720;2023-05-07T04:00:22;1.63;;;1.53;;
14381;SDS011;7275;50.328;8.720;2023-05-07T04:02:50;1.90;;;1.70;;
14381;SDS011;7275;50.328;8.720;2023-05-07T04:05:17;1.80;;;1.70;;
14381;SDS011;7275;50.328;8.720;2023-05-07T04:07:45;2.23;;;1.77;;
14381;SDS011;7275;50.328;8.720;2023-05-07T04:10:12;1.70;;;1.60;;
14381;SDS011;7275;50.328;8.720;2023-05-07T04:12:41;1.90;;;1.80;;
14381;SDS011;7275;50.328;8.720;2023-05-07T04:15:09;2.43;;;1.90;;
14381;SDS011;7275;50.328;8.720;2023-05-07T04:17:37;2.00;;;1.80;;
14381;SDS011;7275;50.328;8.720;2023-05-07T04:20:05;1.93;;;1.80;;
14381;SDS011;7275;50.328;8.720;2023-05-07T04:22:34;2.03;;;1.83;;
14381;SDS011;7275;50.328;8.720;2023-05-07T04:25:02;2.27;;;1.80;;
14381;SDS011;7275;50.328;8.720;2023-05-07T04:27:30;3.10;;;2.03;;
14381;SDS011;7275;50.328;8.720;2023-05-07T04:29:59;2.03;;;1.90;;
14381;SDS011;7275;50.328;8.720;2023-05-07T04:32:27;2.03;;;1.83;;
14381;SDS011;7275;50.328;8.720;2023-05-07T04:34:55;2.57;;;1.93;;
14381;SDS011;7275;50.328;8.720;2023-05-07T04:37:22;2.57;;;2.00;;
14381;SDS011;7275;50.328;8.720;2023-05-07T04:39:50;2.33;;;2.00;;
14381;SDS011;7275;50.328;8.720;2023-05-07T04:42:17;2.20;;;2.00;;
14381;SDS011;7275;50.328;8.720;2023-05-07T04:44:45;2.33;;;2.00;;
14381;SDS011;7275;50.328;8.720;2023-05-07T04:47:14;2.23;;;1.90;;
14381;SDS011;7275;50.328;8.720;2023-05-07T04:49:41;1.90;;;1.80;;
14381;SDS011;7275;50.328;8.720;2023-05-07T04:52:09;2.00;;;1.80;;
14381;SDS011;7275;50.328;8.720;2023-05-07T04:54:36;2.20;;;2.00;;
14381;SDS011;7275;50.328;8.720;2023-05-07T04:57:04;1.83;;;1.73;;
14381;SDS011;7275;50.328;8.720;2023-05-07T04:59:32;2.03;;;1.83;;
14381;SDS011;7275;50.328;8.720;2023-05-07T05:01:59;2.53;;;2.33;;
14381;SDS011;7275;50.328;8.720;2023-05-07T05:04:28;3.20;;;2.57;;
14381;SDS011;7275;50.328;8.720;2023-05-07T05:06:56;2.37;;;2.17;;
14381;SDS011;7275;50.328;8.720;2023-05-07T05:09:25;2.10;;;1.90;;
14381;SDS011;7275;50.328;8.720;2023-05-07T05:11:52;2.10;;;1.90;;
14381;SDS011;7275;50.328;8.720;2023-05-07T05:14:21;1.83;;;1.70;;
14381;SDS011;7275;50.328;8.720;2023-05-07T05:16:49;1.90;;;1.70;;
14381;SDS011;7275;50.328;8.720;2023-05-07T05:19:16;2.10;;;1.90;;
14381;SDS011;7275;50.328;8.720;2023-05-07T05:21:45;1.77;;;1.67;;
14381;SDS011;7275;50.328;8.720;2023-05-07T05:24:12;1.70;;;1.60;;
14381;SDS011;7275;50.328;8.720;2023-05-07T05:26:41;1.73;;;1.63;;
14381;SDS011;7275;50.328;8.720;2023-05-07T05:29:08;3.13;;;2.00;;
14381;SDS011;7275;50.328;8.720;2023-05-07T05:31:36;1.90;;;1.80;;
14381;SDS011;7275;50.328;8.720;2023-05-07T05:34:04;1.93;;;1.60;;
14381;SDS011;7275;50.328;8.720;2023-05-07T05:36:31;1.57;;;1.47;;
14381;SDS011;7275;50.328;8.720;2023-05-07T05:39:00;1.60;;;1.50;;
14381;SDS011;7275;50.328;8.720;2023-05-07T05:41:27;1.90;;;1.80;;
14381;SDS011;7275;50.328;8.720;2023-05-07T05:43:55;2.97;;;2.00;;
14381;SDS011;7275;50.328;8.720;2023-05-07T05:46:22;1.73;;;1.63;;
14381;SDS011;7275;50.328;8.720;2023-05-07T05:48:50;3.23;;;2.10;;
14381;SDS011;7275;50.328;8.720;2023-05-07T05:51:17;1.97;;;1.80;;
14381;SDS011;7275;50.328;8.720;2023-05-07T05:53:45;2.10;;;1.80;;
14381;SDS011;7275;50.328;8.720;2023-05-07T05:56:14;1.70;;;1.60;;
14381;SDS011;7275;50.328;8.720;2023-05-07T05:58:42;1.97;;;1.80;;
14381;SDS011;7275;50.328;8.720;2023-05-07T06:01:10;1.80;;;1.70;;
14381;SDS011;7275;50.328;8.720;2023-05-07T06:03:38;1.90;;;1.80;;
14381;SDS011;7275;50.328;8.720;2023-05-07T06:06:05;2.07;;;1.87;;
14381;SDS011;7275;50.328;8.720;2023-05-07T06:08:33;2.43;;;2.00;;
14381;SDS011;7275;50.328;8.720;2023-05-07T06:11:01;2.07;;;1.87;;
14381;SDS011;7275;50.328;8.720;2023-05-07T06:13:30;2.10;;;1.60;;
14381;SDS011;7275;50.328;8.720;2023-05-07T06:15:59;3.33;;;1.90;;
14381;SDS011;7275;50.328;8.720;2023-05-07T06:18:26;1.93;;;1.80;;
14381;SDS011;7275;50.328;8.720;2023-05-07T06:20:54;2.07;;;1.80;;
14381;SDS011;7275;50.328;8.720;2023-05-07T06:23:21;2.33;;;1.90;;
14381;SDS011;7275;50.328;8.720;2023-05-07T06:25:49;2.27;;;1.87;;
14381;SDS011;7275;50.328;8.720;2023-05-07T06:28:17;2.20;;;2.00;;
14381;SDS011;7275;50.328;8.720;2023-05-07T06:30:46;1.97;;;1.80;;
14381;SDS011;7275;50.328;8.720;2023-05-07T06:33:14;3.17;;;1.80;;
14381;SDS011;7275;50.328;8.720;2023-05-07T06:35:42;2.03;;;1.87;;
14381;SDS011;7275;50.328;8.720;2023-05-07T06:38:10;2.10;;;1.90;;
14381;SDS011;7275;50.328;8.720;2023-05-07T06:40:38;2.20;;;2.00;;
14381;SDS011;7275;50.328;8.720;2023-05-07T06:43:05;2.37;;;2.03;;
14381;SDS011;7275;50.328;8.720;2023-05-07T06:45:33;2.27;;;2.10;;
14381;SDS011;7275;50.328;8.720;2023-05-07T06:48:02;2.73;;;1.90;;
14381;SDS011;7275;50.328;8.720;2023-05-07T06:50:30;2.13;;;2.00;;
14381;SDS011;7275;50.328;8.720;2023-05-07T06:52:57;1.90;;;1.80;;
14381;SDS011;7275;50.328;8.720;2023-05-07T06:55:25;2.37;;;2.00;;
14381;SDS011;7275;50.328;8.720;2023-05-07T06:57:52;2.03;;;1.83;;
14381;SDS011;7275;50.328;8.720;2023-05-07T07:00:19;2.00;;;1.90;;
14381;SDS011;7275;50.328;8.720;2023-05-07T07:02:47;2.13;;;1.97;;
14381;SDS011;7275;50.328;8.720;2023-05-07T07:05:16;2.17;;;1.80;;
14381;SDS011;7275;50.328;8.720;2023-05-07T07:07:43;2.10;;;1.90;;
14381;SDS011;7275;50.328;8.720;2023-05-07T07:10:18;2.00;;;1.80;;
14381;SDS011;7275;50.328;8.720;2023-05-07T07:12:46;2.07;;;1.97;;
14381;SDS011;7275;50.328;8.720;2023-05-07T07:15:13;2.20;;;2.00;;
14381;SDS011;7275;50.328;8.720;2023-05-07T07:17:41;1.87;;;1.77;;
14381;SDS011;7275;50.328;8.720;2023-05-07T07:20:09;2.40;;;2.03;;
14381;SDS011;7275;50.328;8.720;2023-05-07T07:22:39;2.20;;;2.00;;
14381;SDS011;7275;50.328;8.720;2023-05-07T07:25:07;2.58;;;2.20;;
14381;SDS011;7275;50.328;8.720;2023-05-07T07:27:36;2.75;;;1.92;;
14381;SDS011;7275;50.328;8.720;2023-05-07T07:30:04;1.90;;;1.80;;
14381;SDS011;7275;50.328;8.720;2023-05-07T07:32:32;1.85;;;1.75;;
14381;SDS011;7275;50.328;8.720;2023-05-07T07:35:00;1.92;;;1.83;;
14381;SDS011;7275;50.328;8.720;2023-05-07T07:37:28;2.03;;;1.90;;
14381;SDS011;7275;50.328;8.720;2023-05-07T07:39:57;1.95;;;1.65;;
14381;SDS011;7275;50.328;8.720;2023-05-07T07:42:24;2.38;;;2.17;;
14381;SDS011;7275;50.328;8.720;2023-05-07T07:44:52;2.50;;;2.30;;
14381;SDS011;7275;50.328;8.720;2023-05-07T07:47:19;3.00;;;2.17;;
14381;SDS011;7275;50.328;8.720;2023-05-07T07:49:47;2.03;;;1.90;;
14381;SDS011;7275;50.328;8.720;2023-05-07T07:52:14;2.25;;;2.05;;
14381;SDS011;7275;50.328;8.720;2023-05-07T07:54:42;2.33;;;2.13;;
14381;SDS011;7275;50.328;8.720;2023-05-07T07:57:10;2.20;;;2.10;;
14381;SDS011;7275;50.328;8.720;2023-05-07T07:59:38;2.03;;;1.92;;
14381;SDS011;7275;50.328;8.720;2023-05-07T08:02:06;2.15;;;1.95;;
14381;SDS011;7275;50.328;8.720;2023-05-07T08:04:34;6.70;;;2.30;;
14381;SDS011;7275;50.328;8.720;2023-05-07T08:07:03;2.47;;;2.28;;
14381;SDS011;7275;50.328;8.720;2023-05-07T08:09:30;2.50;;;2.30;;
14381;SDS011;7275;50.328;8.720;2023-05-07T08:11:58;3.00;;;2.25;;
14381;SDS011;7275;50.328;8.720;2023-05-07T08:14:27;2.60;;;2.40;;
14381;SDS011;7275;50.328;8.720;2023-05-07T08:16:54;2.45;;;2.25;;
14381;SDS011;7275;50.328;8.720;2023-05-07T08:19:22;3.05;;;2.60;;
14381;SDS011;7275;50.328;8.720;2023-05-07T08:21:50;2.50;;;2.30;;
14381;SDS011;7275;50.328;8.720;2023-05-07T08:24:17;2.25;;;2.05;;
14381;SDS011;7275;50.328;8.720;2023-05-07T08:26:45;2.72;;;2.53;;
14381;SDS011;7275;50.328;8.720;2023-05-07T08:29:13;2.38;;;2.17;;
14381;SDS011;7275;50.328;8.720;2023-05-07T08:31:41;2.40;;;2.20;;
14381;SDS011;7275;50.328;8.720;2023-05-07T08:34:09;2.50;;;2.10;;
14381;SDS011;7275;50.328;8.720;2023-05-07T08:36:36;2.70;;;2.50;;
14381;SDS011;7275;50.328;8.720;2023-05-07T08:39:04;2.42;;;2.22;;
14381;SDS011;7275;50.328;8.720;2023-05-07T08:41:31;2.35;;;2.15;;
14381;SDS011;7275;50.328;8.720;2023-05-07T08:43:59;2.40;;;2.20;;
14381;SDS011;7275;50.328;8.720;2023-05-07T08:46:30;3.08;;;2.13;;
14381;SDS011;7275;50.328;8.720;2023-05-07T08:49:00;2.55;;;2.35;;
14381;SDS011;7275;50.328;8.720;2023-05-07T08:51:28;2.60;;;2.40;;
14381;SDS011;7275;50.328;8.720;2023-05-07T08:53:55;2.40;;;2.20;;
14381;SDS011;7275;50.328;8.720;2023-05-07T08:56:23;2.40;;;2.20;;
14381;SDS011;7275;50.328;8.720;2023-05-07T08:58:51;2.55;;;2.28;;
14381;SDS011;7275;50.328;8.720;2023-05-07T09:01:22;2.13;;;1.92;;
14381;SDS011;7275;50.328;8.720;2023-05-07T09:03:50;2.35;;;2.15;;
14381;SDS011;7275;50.328;8.720;2023-05-07T09:06:20;1.95;;;1.85;;
14381;SDS011;7275;50.328;8.720;2023-05-07T09:08:51;2.20;;;2.00;;
14381;SDS011;7275;50.328;8.720;2023-05-07T09:11:20;2.97;;;2.25;;
14381;SDS011;7275;50.328;8.720;2023-05-07T09:13:48;2.38;;;2.17;;
14381;SDS011;7275;50.328;8.720;2023-05-07T09:16:20;2.10;;;2.00;;
14381;SDS011;7275;50.328;8.720;2023-05-07T09:18:50;2.30;;;2.15;;
14381;SDS011;7275;50.328;8.720;2023-05-07T09:21:21;2.40;;;2.20;;
14381;SDS011;7275;50.328;8.720;2023-05-07T09:23:49;2.25;;;2.05;;
14381;SDS011;7275;50.328;8.720;2023-05-07T09:26:18;2.22;;;2.03;;
14381;SDS011;7275;50.328;8.720;2023-05-07T09:28:48;2.20;;;2.00;;
14381;SDS011;7275;50.328;8.720;2023-05-07T09:31:16;2.42;;;2.22;;
14381;SDS011;7275;50.328;8.720;2023-05-07T09:33:46;3.95;;;2.30;;
14381;SDS011;7275;50.328;8.720;2023-05-07T09:36:14;2.88;;;2.20;;
14381;SDS011;7275;50.328;8.720;2023-05-07T09:38:43;3.53;;;2.33;;
14381;SDS011;7275;50.328;8.720;2023-05-07T09:41:13;2.20;;;2.00;;
14381;SDS011;7275;50.328;8.720;2023-05-07T09:43:40;2.40;;;2.20;;
14381;SDS011;7275;50.328;8.720;2023-05-07T09:46:11;2.95;;;2.22;;
14381;SDS011;7275;50.328;8.720;2023-05-07T09:48:41;2.47;;;2.28;;
14381;SDS011;7275;50.328;8.720;2023-05-07T09:51:18;2.38;;;2.10;;
14381;SDS011;7275;50.328;8.720;2023-05-07T09:53:55;2.25;;;2.05;;
14381;SDS011;7275;50.328;8.720;2023-05-07T09:56:23;2.15;;;2.05;;
14381;SDS011;7275;50.328;8.720;2023-05-07T09:58:52;2.65;;;2.15;;
14381;SDS011;7275;50.328;8.720;2023-05-07T10:01:23;2.30;;;2.10;;
14381;SDS011;7275;50.328;8.720;2023-05-07T10:03:52;2.50;;;2.30;;
14381;SDS011;7275;50.328;8.720;2023-05-07T10:06:20;2.22;;;2.10;;
14381;SDS011;7275;50.328;8.720;2023-05-07T10:08:49;4.60;;;2.13;;
14381;SDS011;7275;50.328;8.720;2023-05-07T10:11:20;2.15;;;1.95;;
14381;SDS011;7275;50.328;8.720;2023-05-07T10:13:49;2.10;;;1.95;;
14381;SDS011;7275;50.328;8.720;2023-05-07T10:16:19;2.22;;;2.00;;
14381;SDS011;7275;50.328;8.720;2023-05-07T10:18:47;3.10;;;2.20;;
14381;SDS011;7275;50.328;8.720;2023-05-07T10:21:16;2.30;;;2.10;;
14381;SDS011;7275;50.328;8.720;2023-05-07T10:23:46;2.22;;;2.00;;
14381;SDS011;7275;50.328;8.720;2023-05-07T10:26:17;2.20;;;1.90;;
14381;SDS011;7275;50.328;8.720;2023-05-07T10:28:49;2.40;;;2.20;;
14381;SDS011;7275;50.328;8.720;2023-05-07T10:31:26;2.20;;;2.00;;
14381;SDS011;7275;50.328;8.720;2023-05-07T10:34:01;2.10;;;1.98;;
14381;SDS011;7275;50.328;8.720;2023-05-07T10:36:34;2.45;;;2.25;;
14381;SDS011;7275;50.328;8.720;2023-05-07T10:39:03;2.08;;;1.98;;
14381;SDS011;7275;50.328;8.720;2023-05-07T10:41:33;2.10;;;1.92;;
14381;SDS011;7275;50.328;8.720;2023-05-07T10:44:02;2.05;;;1.95;;
14381;SDS011;7275;50.328;8.720;2023-05-07T10:46:30;2.15;;;2.05;;
14381;SDS011;7275;50.328;8.720;2023-05-07T10:49:07;2.13;;;1.95;;
14381;SDS011;7275;50.328;8.720;2023-05-07T10:51:42;2.22;;;1.88;;
14381;SDS011;7275;50.328;8.720;2023-05-07T10:54:18;2.45;;;2.03;;
14381;SDS011;7275;50.328;8.720;2023-05-07T10:56:46;2.35;;;2.03;;
14381;SDS011;7275;50.328;8.720;2023-05-07T10:59:34;1.98;;;1.83;;
14381;SDS011;7275;50.328;8.720;2023-05-07T11:02:08;1.98;;;1.88;;
14381;SDS011;7275;50.328;8.720;2023-05-07T11:04:37;2.35;;;2.15;;
14381;SDS011;7275;50.328;8.720;2023-05-07T11:07:24;2.22;;;2.13;;
14381;SDS011;7275;50.328;8.720;2023-05-07T11:10:02;2.15;;;2.05;;
14381;SDS011;7275;50.328;8.720;2023-05-07T11:12:50;2.30;;;2.10;;
14381;SDS011;7275;50.328;8.720;2023-05-07T11:15:36;3.50;;;2.10;;
14381;SDS011;7275;50.328;8.720;2023-05-07T11:18:14;2.30;;;2.10;;
14381;SDS011;7275;50.328;8.720;2023-05-07T11:20:50;2.45;;;2.10;;
14381;SDS011;7275;50.328;8.720;2023-05-07T11:26:28;2.00;;;1.90;;
14381;SDS011;7275;50.328;8.720;2023-05-07T11:28:57;2.50;;;2.05;;
14381;SDS011;7275;50.328;8.720;2023-05-07T11:31:27;2.40;;;2.20;;
14381;SDS011;7275;50.328;8.720;2023-05-07T11:33:56;2.10;;;2.00;;
14381;SDS011;7275;50.328;8.720;2023-05-07T11:36:25;2.40;;;2.20;;
14381;SDS011;7275;50.328;8.720;2023-05-07T11:38:57;2.35;;;2.15;;
14381;SDS011;7275;50.328;8.720;2023-05-07T11:41:32;2.40;;;2.20;;
14381;SDS011;7275;50.328;8.720;2023-05-07T11:44:00;2.67;;;2.38;;
14381;SDS011;7275;50.328;8.720;2023-05-07T11:46:29;3.47;;;3.28;;
14381;SDS011;7275;50.328;8.720;2023-05-07T11:48:57;3.00;;;2.70;;
14381;SDS011;7275;50.328;8.720;2023-05-07T11:51:25;3.03;;;2.80;;
14381;SDS011;7275;50.328;8.720;2023-05-07T11:53:53;3.38;;;3.08;;
14381;SDS011;7275;50.328;8.720;2023-05-07T11:56:20;3.03;;;2.70;;
14381;SDS011;7275;50.328;8.720;2023-05-07T11:58:48;2.20;;;2.00;;
14381;SDS011;7275;50.328;8.720;2023-05-07T12:01:17;2.05;;;1.95;;
14381;SDS011;7275;50.328;8.720;2023-05-07T12:03:46;2.00;;;1.90;;
14381;SDS011;7275;50.328;8.720;2023-05-07T12:06:14;1.90;;;1.80;;
14381;SDS011;7275;50.328;8.720;2023-05-07T12:08:43;1.85;;;1.75;;
14381;SDS011;7275;50.328;8.720;2023-05-07T12:11:14;2.30;;;2.10;;
14381;SDS011;7275;50.328;8.720;2023-05-07T12:13:44;2.10;;;2.00;;
14381;SDS011;7275;50.328;8.720;2023-05-07T12:16:12;1.83;;;1.70;;
14381;SDS011;7275;50.328;8.720;2023-05-07T12:18:39;1.92;;;1.83;;
14381;SDS011;7275;50.328;8.720;2023-05-07T12:21:08;1.75;;;1.65;;
14381;SDS011;7275;50.328;8.720;2023-05-07T12:23:37;1.88;;;1.77;;
14381;SDS011;7275;50.328;8.720;2023-05-07T12:26:05;1.70;;;1.60;;
14381;SDS011;7275;50.328;8.720;2023-05-07T12:28:36;1.70;;;1.60;;
14381;SDS011;7275;50.328;8.720;2023-05-07T12:31:05;1.65;;;1.55;;
14381;SDS011;7275;50.328;8.720;2023-05-07T12:33:33;1.75;;;1.65;;
14381;SDS011;7275;50.328;8.720;2023-05-07T12:36:05;1.73;;;1.63;;
14381;SDS011;7275;50.328;8.720;2023-05-07T12:38:36;1.80;;;1.70;;
14381;SDS011;7275;50.328;8.720;2023-05-07T12:41:07;1.98;;;1.67;;
14381;SDS011;7275;50.328;8.720;2023-05-07T12:43:36;4.30;;;1.80;;
14381;SDS011;7275;50.328;8.720;2023-05-07T12:46:05;2.00;;;1.80;;
14381;SDS011;7275;50.328;8.720;2023-05-07T12:48:35;1.60;;;1.50;;
14381;SDS011;7275;50.328;8.720;2023-05-07T12:51:03;2.03;;;1.73;;
14381;SDS011;7275;50.328;8.720;2023-05-07T12:53:33;1.70;;;1.60;;
14381;SDS011;7275;50.328;8.720;2023-05-07T12:56:08;2.13;;;1.65;;
14381;SDS011;7275;50.328;8.720;2023-05-07T12:58:36;1.58;;;1.42;;
14381;SDS011;7275;50.328;8.720;2023-05-07T13:01:04;1.70;;;1.50;;
14381;SDS011;7275;50.328;8.720;2023-05-07T13:03:33;1.67;;;1.58;;
14381;SDS011;7275;50.328;8.720;2023-05-07T13:06:04;1.67;;;1.58;;
14381;SDS011;7275;50.328;8.720;2023-05-07T13:08:36;2.15;;;1.60;;
14381;SDS011;7275;50.328;8.720;2023-05-07T13:11:07;1.70;;;1.60;;
14381;SDS011;7275;50.328;8.720;2023-05-07T13:13:36;1.60;;;1.50;;
14381;SDS011;7275;50.328;8.720;2023-05-07T13:16:05;1.55;;;1.45;;
14381;SDS011;7275;50.328;8.720;2023-05-07T13:18:35;1.73;;;1.50;;
14381;SDS011;7275;50.328;8.720;2023-05-07T13:21:03;1.75;;;1.63;;
14381;SDS011;7275;50.328;8.720;2023-05-07T13:23:31;1.60;;;1.50;;
14381;SDS011;7275;50.328;8.720;2023-05-07T13:25:58;1.80;;;1.70;;
14381;SDS011;7275;50.328;8.720;2023-05-07T13:28:35;1.90;;;1.70;;
14381;SDS011;7275;50.328;8.720;2023-05-07T13:31:02;1.60;;;1.50;;
14381;SDS011;7275;50.328;8.720;2023-05-07T13:33:30;1.70;;;1.60;;
14381;SDS011;7275;50.328;8.720;2023-05-07T13:35:57;1.80;;;1.70;;
14381;SDS011;7275;50.328;8.720;2023-05-07T13:38:26;1.77;;;1.67;;
14381;SDS011;7275;50.328;8.720;2023-05-07T13:40:54;1.67;;;1.58;;
14381;SDS011;7275;50.328;8.720;2023-05-07T13:43:22;1.80;;;1.60;;
14381;SDS011;7275;50.328;8.720;2023-05-07T13:45:50;1.75;;;1.65;;
14381;SDS011;7275;50.328;8.720;2023-05-07T13:48:18;1.60;;;1.35;;
14381;SDS011;7275;50.328;8.720;2023-05-07T13:50:46;1.95;;;1.50;;
14381;SDS011;7275;50.328;8.720;2023-05-07T13:53:13;1.70;;;1.60;;
14381;SDS011;7275;50.328;8.720;2023-05-07T13:55:43;4.25;;;1.70;;
14381;SDS011;7275;50.328;8.720;2023-05-07T13:58:11;3.30;;;1.60;;
14381;SDS011;7275;50.328;8.720;2023-05-07T14:00:38;2.40;;;1.70;;
14381;SDS011;7275;50.328;8.720;2023-05-07T14:03:07;2.03;;;1.58;;
14381;SDS011;7275;50.328;8.720;2023-05-07T14:05:35;1.83;;;1.70;;
14381;SDS011;7275;50.328;8.720;2023-05-07T14:08:02;1.73;;;1.63;;
14381;SDS011;7275;50.328;8.720;2023-05-07T14:10:31;1.50;;;1.40;;
14381;SDS011;7275;50.328;8.720;2023-05-07T14:13:00;1.98;;;1.67;;
14381;SDS011;7275;50.328;8.720;2023-05-07T14:15:28;1.70;;;1.60;;
14381;SDS011;7275;50.328;8.720;2023-05-07T14:17:55;1.63;;;1.52;;
14381;SDS011;7275;50.328;8.720;2023-05-07T14:20:26;1.92;;;1.60;;
14381;SDS011;7275;50.328;8.720;2023-05-07T14:22:54;1.60;;;1.50;;
14381;SDS011;7275;50.328;8.720;2023-05-07T14:25:23;1.50;;;1.40;;
14381;SDS011;7275;50.328;8.720;2023-05-07T14:27:50;3.80;;;1.60;;
14381;SDS011;7275;50.328;8.720;2023-05-07T14:30:18;1.70;;;1.55;;
14381;SDS011;7275;50.328;8.720;2023-05-07T14:32:45;1.70;;;1.60;;
14381;SDS011;7275;50.328;8.720;2023-05-07T14:35:13;1.60;;;1.50;;
14381;SDS011;7275;50.328;8.720;2023-05-07T14:37:42;1.92;;;1.83;;
14381;SDS011;7275;50.328;8.720;2023-05-07T14:40:10;2.97;;;2.78;;
14381;SDS011;7275;50.328;8.720;2023-05-07T14:42:38;4.20;;;3.83;;
14381;SDS011;7275;50.328;8.720;2023-05-07T14:45:06;6.40;;;5.90;;
14381;SDS011;7275;50.328;8.720;2023-05-07T14:47:35;4.60;;;3.00;;
14381;SDS011;7275;50.328;8.720;2023-05-07T14:50:03;2.00;;;1.90;;
14381;SDS011;7275;50.328;8.720;2023-05-07T14:52:30;1.60;;;1.50;;
14381;SDS011;7275;50.328;8.720;2023-05-07T14:54:59;1.55;;;1.42;;
14381;SDS011;7275;50.328;8.720;2023-05-07T14:57:27;2.90;;;1.40;;
14381;SDS011;7275;50.328;8.720;2023-05-07T14:59:58;2.50;;;1.50;;
14381;SDS011;7275;50.328;8.720;2023-05-07T15:02:25;1.75;;;1.48;;
14381;SDS011;7275;50.328;8.720;2023-05-07T15:04:53;1.88;;;1.40;;
14381;SDS011;7275;50.328;8.720;2023-05-07T15:07:20;1.50;;;1.40;;
14381;SDS011;7275;50.328;8.720;2023-05-07T15:09:48;1.83;;;1.38;;
14381;SDS011;7275;50.328;8.720;2023-05-07T15:12:17;1.60;;;1.40;;